Haverhill, New Hampshire
Current Conditions -  °F | °C
As of 8:35 AM on Friday 19 Dec 2014 (Local Time) from K1P1 Reporting Station
Overcast Overcast  
Wind Chill: 21°   Ceiling: 2600
Heat Index: 29°   Visibility: 10mi
Dew Point: 25°   Wind: 9mph
Humidity: 85%   Direction: 300°WNW
Pressure: 29.93"   Gusts: NA
Location:  44.03°N, 72.06°W
Report Text: K1P1 191335Z AUTO 30008KT 10SM OVC026 M01/M04 A2993 RMK AO2 T10151038
Loading
Personal Weather Stations






























Interactive Weather Map New forecast layout! Learn more

10-Day Weather Forecast

Advertisements
Track Severe Weather on mobile